Overseas Houston — WWAA — position and weather

sailwx.info

Track history (hours):
 
Tides and Currents Weather Stations Pressure Air Temp Water Temp Dewpoint Dewpoint Depression Visibility Wind Speed Wind Dir Waves Ship Positions

Overseas Houston

Owner: ASC Leasing I, Inc., Kennett Square, PA. More information available from US FCC via Universal Licensing System and Coast Guard Vessel Documentation Center.

Last reported at 2017-Jan-11 18:32 UTC. Time now 2017-Jan-22 10:20 UTC.
Position N 01°14' E 103°57'.
Warning: this ship's position is 10 days out of date.

Type: Tanker. MMSI: 367109000.

Date/timePositionNaut miles runAvg speedWind from/ knotsBaromVisibWave heightAir tempDewpointWater temp
2017-Jan-11 18:32N 01°14' E 103°57'3 0.9
2017-Jan-11 15:06N 01°17' E 103°56'0 0.0
2017-Jan-11 14:30N 01°17' E 103°56'0 0.1
2017-Jan-11 13:33N 01°17' E 103°56'0 0.0
2017-Jan-11 12:09N 01°17' E 103°56'0 0.0
2017-Jan-11 11:27N 01°17' E 103°56'0 0.1
2017-Jan-11 10:15N 01°17' E 103°56'0 0.0
2017-Jan-11 08:27N 01°17' E 103°56'0 0.0
2017-Jan-11 07:12N 01°17' E 103°56'0 0.0
2017-Jan-11 06:12N 01°17' E 103°56'0 0.0
2017-Jan-11 05:18N 01°17' E 103°56'0 0.0
2017-Jan-11 04:30N 01°17' E 103°56'0 0.0
2017-Jan-11 03:27N 01°17' E 103°56'0 0.2
2017-Jan-11 02:32N 01°17' E 103°56'0 0.4
2017-Jan-11 01:33N 01°17' E 103°56'3 2.9
2017-Jan-11 00:30N 01°14' E 103°56'96 8.4
2017-Jan-10 13:12N 01°48' E 102°27'710.2
2017-Jan-10 12:33N 01°50' E 102°21'11 9.1
2017-Jan-10 11:23N 01°56' E 102°12'11 9.8
2017-Jan-10 10:18N 02°03' E 102°04'  
Track history (hours):
 
Tides and Currents Weather Stations Pressure Air Temp Water Temp Dewpoint Dewpoint Depression Visibility Wind Speed Wind Dir Waves Ship Positions

Overseas Houston

Owner: ASC Leasing I, Inc., Kennett Square, PA. More information available from US FCC via Universal Licensing System and Coast Guard Vessel Documentation Center.

Last reported at 2017-Jan-11 18:32 UTC. Time now 2017-Jan-22 10:20 UTC.
Position N 01°14' E 103°57'.
Warning: this ship's position is 10 days out of date.

Type: Tanker. MMSI: 367109000.

Date/timePositionNaut miles runAvg speedWind from/ knotsBaromVisibWave heightAir tempDewpointWater temp
2017-Jan-11 18:32N 01°14' E 103°57'3 0.9
2017-Jan-11 15:06N 01°17' E 103°56'0 0.0
2017-Jan-11 14:30N 01°17' E 103°56'0 0.1
2017-Jan-11 13:33N 01°17' E 103°56'0 0.0
2017-Jan-11 12:09N 01°17' E 103°56'0 0.0
2017-Jan-11 11:27N 01°17' E 103°56'0 0.1
2017-Jan-11 10:15N 01°17' E 103°56'0 0.0
2017-Jan-11 08:27N 01°17' E 103°56'0 0.0
2017-Jan-11 07:12N 01°17' E 103°56'0 0.0
2017-Jan-11 06:12N 01°17' E 103°56'0 0.0
2017-Jan-11 05:18N 01°17' E 103°56'0 0.0
2017-Jan-11 04:30N 01°17' E 103°56'0 0.0
2017-Jan-11 03:27N 01°17' E 103°56'0 0.2
2017-Jan-11 02:32N 01°17' E 103°56'0 0.4
2017-Jan-11 01:33N 01°17' E 103°56'3 2.9
2017-Jan-11 00:30N 01°14' E 103°56'96 8.4
2017-Jan-10 13:12N 01°48' E 102°27'710.2
2017-Jan-10 12:33N 01°50' E 102°21'11 9.1
2017-Jan-10 11:23N 01°56' E 102°12'11 9.8
2017-Jan-10 10:18N 02°03' E 102°04'  

Dump ship's entire track history